sensor_id;sensor_type;location;lat;lon;timestamp;P1;durP1;ratioP1;P2;durP2;ratioP2
2650;SDS011;1335;48.180;16.342;2023-12-20T00:01:07;35.83;;;25.02;;
2650;SDS011;1335;48.180;16.342;2023-12-20T00:03:35;37.25;;;25.23;;
2650;SDS011;1335;48.180;16.342;2023-12-20T00:06:02;35.00;;;24.95;;
2650;SDS011;1335;48.180;16.342;2023-12-20T00:08:29;33.35;;;25.25;;
2650;SDS011;1335;48.180;16.342;2023-12-20T00:10:57;33.47;;;23.90;;
2650;SDS011;1335;48.180;16.342;2023-12-20T00:13:24;30.95;;;24.00;;
2650;SDS011;1335;48.180;16.342;2023-12-20T00:15:51;31.33;;;23.52;;
2650;SDS011;1335;48.180;16.342;2023-12-20T00:18:20;33.33;;;24.65;;
2650;SDS011;1335;48.180;16.342;2023-12-20T00:20:47;32.25;;;23.83;;
2650;SDS011;1335;48.180;16.342;2023-12-20T00:23:14;40.30;;;24.65;;
2650;SDS011;1335;48.180;16.342;2023-12-20T00:25:42;28.13;;;20.38;;
2650;SDS011;1335;48.180;16.342;2023-12-20T00:28:09;31.92;;;22.67;;
2650;SDS011;1335;48.180;16.342;2023-12-20T00:30:36;30.80;;;22.38;;
2650;SDS011;1335;48.180;16.342;2023-12-20T00:33:04;32.80;;;23.80;;
2650;SDS011;1335;48.180;16.342;2023-12-20T00:35:32;36.80;;;25.02;;
2650;SDS011;1335;48.180;16.342;2023-12-20T00:38:00;32.80;;;23.45;;
2650;SDS011;1335;48.180;16.342;2023-12-20T00:40:27;31.52;;;24.17;;
2650;SDS011;1335;48.180;16.342;2023-12-20T00:42:54;35.63;;;23.67;;
2650;SDS011;1335;48.180;16.342;2023-12-20T00:45:22;33.35;;;24.73;;
2650;SDS011;1335;48.180;16.342;2023-12-20T00:47:49;31.25;;;22.92;;
2650;SDS011;1335;48.180;16.342;2023-12-20T00:50:16;36.95;;;24.15;;
2650;SDS011;1335;48.180;16.342;2023-12-20T00:52:45;33.22;;;23.35;;
2650;SDS011;1335;48.180;16.342;2023-12-20T00:55:12;39.00;;;23.67;;
2650;SDS011;1335;48.180;16.342;2023-12-20T00:57:40;33.75;;;23.30;;
2650;SDS011;1335;48.180;16.342;2023-12-20T01:00:07;37.25;;;25.05;;
2650;SDS011;1335;48.180;16.342;2023-12-20T01:02:35;33.60;;;24.90;;
2650;SDS011;1335;48.180;16.342;2023-12-20T01:05:03;36.28;;;24.65;;
2650;SDS011;1335;48.180;16.342;2023-12-20T01:07:30;34.20;;;23.75;;
2650;SDS011;1335;48.180;16.342;2023-12-20T01:09:59;34.85;;;25.95;;
2650;SDS011;1335;48.180;16.342;2023-12-20T01:12:26;37.35;;;24.58;;
2650;SDS011;1335;48.180;16.342;2023-12-20T01:14:53;36.05;;;24.30;;
2650;SDS011;1335;48.180;16.342;2023-12-20T01:17:21;36.95;;;25.30;;
2650;SDS011;1335;48.180;16.342;2023-12-20T01:19:48;37.33;;;26.10;;
2650;SDS011;1335;48.180;16.342;2023-12-20T01:22:15;32.78;;;23.77;;
2650;SDS011;1335;48.180;16.342;2023-12-20T01:24:42;32.00;;;24.65;;
2650;SDS011;1335;48.180;16.342;2023-12-20T01:27:11;38.42;;;24.23;;
2650;SDS011;1335;48.180;16.342;2023-12-20T01:29:38;36.15;;;22.90;;
2650;SDS011;1335;48.180;16.342;2023-12-20T01:32:06;31.85;;;23.63;;
2650;SDS011;1335;48.180;16.342;2023-12-20T01:34:33;32.30;;;23.52;;
2650;SDS011;1335;48.180;16.342;2023-12-20T01:37:01;36.95;;;24.80;;
2650;SDS011;1335;48.180;16.342;2023-12-20T01:39:29;29.45;;;23.23;;
2650;SDS011;1335;48.180;16.342;2023-12-20T01:41:56;31.90;;;23.70;;
2650;SDS011;1335;48.180;16.342;2023-12-20T01:44:25;34.72;;;23.10;;
2650;SDS011;1335;48.180;16.342;2023-12-20T01:46:52;34.75;;;23.63;;
2650;SDS011;1335;48.180;16.342;2023-12-20T01:49:19;37.75;;;21.85;;
2650;SDS011;1335;48.180;16.342;2023-12-20T01:51:47;30.90;;;21.35;;
2650;SDS011;1335;48.180;16.342;2023-12-20T01:54:15;31.40;;;21.08;;
2650;SDS011;1335;48.180;16.342;2023-12-20T01:56:42;30.00;;;22.13;;
2650;SDS011;1335;48.180;16.342;2023-12-20T01:59:10;33.22;;;21.95;;
2650;SDS011;1335;48.180;16.342;2023-12-20T02:01:38;31.73;;;23.00;;
2650;SDS011;1335;48.180;16.342;2023-12-20T02:04:06;30.98;;;20.35;;
2650;SDS011;1335;48.180;16.342;2023-12-20T02:06:33;25.85;;;20.92;;
2650;SDS011;1335;48.180;16.342;2023-12-20T02:09:01;33.17;;;22.40;;
2650;SDS011;1335;48.180;16.342;2023-12-20T02:11:28;31.30;;;23.83;;
2650;SDS011;1335;48.180;16.342;2023-12-20T02:13:54;28.10;;;22.02;;
2650;SDS011;1335;48.180;16.342;2023-12-20T02:16:22;31.40;;;21.50;;
2650;SDS011;1335;48.180;16.342;2023-12-20T02:18:50;27.80;;;19.95;;
2650;SDS011;1335;48.180;16.342;2023-12-20T02:21:18;25.42;;;18.98;;
2650;SDS011;1335;48.180;16.342;2023-12-20T02:23:46;26.50;;;18.95;;
2650;SDS011;1335;48.180;16.342;2023-12-20T02:26:14;24.42;;;18.25;;
2650;SDS011;1335;48.180;16.342;2023-12-20T02:28:41;25.65;;;18.33;;
2650;SDS011;1335;48.180;16.342;2023-12-20T02:31:08;20.63;;;16.55;;
2650;SDS011;1335;48.180;16.342;2023-12-20T02:33:36;22.65;;;17.00;;
2650;SDS011;1335;48.180;16.342;2023-12-20T02:36:04;21.65;;;16.30;;
2650;SDS011;1335;48.180;16.342;2023-12-20T02:38:33;17.88;;;15.23;;
2650;SDS011;1335;48.180;16.342;2023-12-20T02:41:02;16.80;;;14.35;;
2650;SDS011;1335;48.180;16.342;2023-12-20T02:43:29;17.15;;;14.00;;
2650;SDS011;1335;48.180;16.342;2023-12-20T02:45:56;15.75;;;12.02;;
2650;SDS011;1335;48.180;16.342;2023-12-20T02:48:24;17.20;;;13.10;;
2650;SDS011;1335;48.180;16.342;2023-12-20T02:50:51;13.27;;;11.20;;
2650;SDS011;1335;48.180;16.342;2023-12-20T02:53:18;14.10;;;11.40;;
2650;SDS011;1335;48.180;16.342;2023-12-20T02:55:46;12.32;;;9.50;;
2650;SDS011;1335;48.180;16.342;2023-12-20T02:58:14;13.02;;;11.02;;
2650;SDS011;1335;48.180;16.342;2023-12-20T03:00:42;12.95;;;10.27;;
2650;SDS011;1335;48.180;16.342;2023-12-20T03:03:10;16.48;;;11.10;;
2650;SDS011;1335;48.180;16.342;2023-12-20T03:05:37;11.80;;;10.60;;
2650;SDS011;1335;48.180;16.342;2023-12-20T03:08:05;14.00;;;11.18;;
2650;SDS011;1335;48.180;16.342;2023-12-20T03:10:32;13.68;;;10.77;;
2650;SDS011;1335;48.180;16.342;2023-12-20T03:12:59;14.98;;;12.32;;
2650;SDS011;1335;48.180;16.342;2023-12-20T03:15:28;12.55;;;11.07;;
2650;SDS011;1335;48.180;16.342;2023-12-20T03:17:55;14.32;;;12.80;;
2650;SDS011;1335;48.180;16.342;2023-12-20T03:20:24;14.30;;;12.45;;
2650;SDS011;1335;48.180;16.342;2023-12-20T03:22:52;14.68;;;12.35;;
2650;SDS011;1335;48.180;16.342;2023-12-20T03:25:19;16.90;;;12.95;;
2650;SDS011;1335;48.180;16.342;2023-12-20T03:27:46;16.92;;;13.82;;
2650;SDS011;1335;48.180;16.342;2023-12-20T03:30:14;17.05;;;13.15;;
2650;SDS011;1335;48.180;16.342;2023-12-20T03:32:43;15.20;;;12.40;;
2650;SDS011;1335;48.180;16.342;2023-12-20T03:35:10;16.98;;;13.40;;
2650;SDS011;1335;48.180;16.342;2023-12-20T03:37:38;16.42;;;13.40;;
2650;SDS011;1335;48.180;16.342;2023-12-20T03:40:05;15.18;;;12.30;;
2650;SDS011;1335;48.180;16.342;2023-12-20T03:42:33;14.77;;;11.80;;
2650;SDS011;1335;48.180;16.342;2023-12-20T03:45:00;16.08;;;12.70;;
2650;SDS011;1335;48.180;16.342;2023-12-20T03:47:28;14.70;;;11.93;;
2650;SDS011;1335;48.180;16.342;2023-12-20T03:49:56;14.73;;;12.00;;
2650;SDS011;1335;48.180;16.342;2023-12-20T03:52:23;13.57;;;11.43;;
2650;SDS011;1335;48.180;16.342;2023-12-20T03:54:51;15.27;;;12.77;;
2650;SDS011;1335;48.180;16.342;2023-12-20T03:57:18;14.85;;;11.70;;
2650;SDS011;1335;48.180;16.342;2023-12-20T03:59:45;15.52;;;12.88;;
2650;SDS011;1335;48.180;16.342;2023-12-20T04:02:13;16.58;;;12.13;;
2650;SDS011;1335;48.180;16.342;2023-12-20T04:04:40;16.02;;;12.07;;
2650;SDS011;1335;48.180;16.342;2023-12-20T04:07:09;15.68;;;12.70;;
2650;SDS011;1335;48.180;16.342;2023-12-20T04:09:36;15.63;;;12.88;;
2650;SDS011;1335;48.180;16.342;2023-12-20T04:12:04;16.00;;;13.00;;
2650;SDS011;1335;48.180;16.342;2023-12-20T04:14:31;17.02;;;12.85;;
2650;SDS011;1335;48.180;16.342;2023-12-20T04:16:59;16.33;;;13.35;;
2650;SDS011;1335;48.180;16.342;2023-12-20T04:19:26;16.30;;;13.38;;
2650;SDS011;1335;48.180;16.342;2023-12-20T04:21:53;16.80;;;13.98;;
2650;SDS011;1335;48.180;16.342;2023-12-20T04:24:22;16.88;;;12.65;;
2650;SDS011;1335;48.180;16.342;2023-12-20T04:26:49;16.70;;;13.07;;
2650;SDS011;1335;48.180;16.342;2023-12-20T04:29:16;15.05;;;13.07;;
2650;SDS011;1335;48.180;16.342;2023-12-20T04:31:44;18.50;;;13.75;;
2650;SDS011;1335;48.180;16.342;2023-12-20T04:34:11;15.88;;;13.23;;
2650;SDS011;1335;48.180;16.342;2023-12-20T04:36:38;15.27;;;12.88;;
2650;SDS011;1335;48.180;16.342;2023-12-20T04:39:06;16.38;;;12.70;;
2650;SDS011;1335;48.180;16.342;2023-12-20T04:41:34;16.52;;;13.30;;
2650;SDS011;1335;48.180;16.342;2023-12-20T04:44:02;17.55;;;13.18;;
2650;SDS011;1335;48.180;16.342;2023-12-20T04:46:29;13.88;;;12.40;;
2650;SDS011;1335;48.180;16.342;2023-12-20T04:48:56;15.77;;;12.68;;
2650;SDS011;1335;48.180;16.342;2023-12-20T04:51:24;16.30;;;13.10;;
2650;SDS011;1335;48.180;16.342;2023-12-20T04:53:51;15.48;;;12.75;;
2650;SDS011;1335;48.180;16.342;2023-12-20T04:56:18;16.83;;;12.07;;
2650;SDS011;1335;48.180;16.342;2023-12-20T04:58:47;13.25;;;9.60;;
2650;SDS011;1335;48.180;16.342;2023-12-20T05:01:14;15.15;;;12.48;;
2650;SDS011;1335;48.180;16.342;2023-12-20T05:03:42;14.70;;;11.52;;
2650;SDS011;1335;48.180;16.342;2023-12-20T05:06:09;14.10;;;11.10;;
2650;SDS011;1335;48.180;16.342;2023-12-20T05:08:37;13.55;;;10.93;;
2650;SDS011;1335;48.180;16.342;2023-12-20T05:11:04;12.95;;;10.10;;
2650;SDS011;1335;48.180;16.342;2023-12-20T05:13:31;12.00;;;8.95;;
2650;SDS011;1335;48.180;16.342;2023-12-20T05:16:00;11.45;;;9.05;;
2650;SDS011;1335;48.180;16.342;2023-12-20T05:18:27;11.68;;;8.93;;
2650;SDS011;1335;48.180;16.342;2023-12-20T05:20:55;12.65;;;9.20;;
2650;SDS011;1335;48.180;16.342;2023-12-20T05:23:22;7.93;;;7.13;;
2650;SDS011;1335;48.180;16.342;2023-12-20T05:25:49;8.93;;;8.02;;
2650;SDS011;1335;48.180;16.342;2023-12-20T05:28:17;8.90;;;7.57;;
2650;SDS011;1335;48.180;16.342;2023-12-20T05:30:44;9.23;;;7.10;;
2650;SDS011;1335;48.180;16.342;2023-12-20T05:33:13;10.90;;;6.97;;
2650;SDS011;1335;48.180;16.342;2023-12-20T05:35:40;11.68;;;8.40;;
2650;SDS011;1335;48.180;16.342;2023-12-20T05:38:07;10.07;;;7.18;;
2650;SDS011;1335;48.180;16.342;2023-12-20T05:40:35;9.13;;;6.77;;
2650;SDS011;1335;48.180;16.342;2023-12-20T05:43:02;6.70;;;5.70;;
2650;SDS011;1335;48.180;16.342;2023-12-20T05:45:29;9.20;;;8.07;;
2650;SDS011;1335;48.180;16.342;2023-12-20T05:47:56;8.43;;;6.80;;
2650;SDS011;1335;48.180;16.342;2023-12-20T05:50:25;5.83;;;4.67;;
2650;SDS011;1335;48.180;16.342;2023-12-20T05:52:53;7.00;;;6.23;;
2650;SDS011;1335;48.180;16.342;2023-12-20T05:55:20;6.77;;;5.40;;
2650;SDS011;1335;48.180;16.342;2023-12-20T05:57:47;6.87;;;5.50;;
2650;SDS011;1335;48.180;16.342;2023-12-20T06:00:15;7.10;;;5.17;;
2650;SDS011;1335;48.180;16.342;2023-12-20T06:02:42;13.30;;;6.43;;
2650;SDS011;1335;48.180;16.342;2023-12-20T06:05:10;7.13;;;5.27;;
2650;SDS011;1335;48.180;16.342;2023-12-20T06:07:38;7.40;;;5.83;;
2650;SDS011;1335;48.180;16.342;2023-12-20T06:10:06;6.67;;;5.70;;
2650;SDS011;1335;48.180;16.342;2023-12-20T06:12:34;9.10;;;4.63;;
2650;SDS011;1335;48.180;16.342;2023-12-20T06:15:02;3.80;;;2.53;;
2650;SDS011;1335;48.180;16.342;2023-12-20T06:17:29;4.03;;;2.77;;
2650;SDS011;1335;48.180;16.342;2023-12-20T06:19:56;5.13;;;2.80;;
2650;SDS011;1335;48.180;16.342;2023-12-20T06:22:24;2.60;;;2.03;;
2650;SDS011;1335;48.180;16.342;2023-12-20T06:24:52;2.50;;;2.30;;
2650;SDS011;1335;48.180;16.342;2023-12-20T06:27:20;2.70;;;2.17;;
2650;SDS011;1335;48.180;16.342;2023-12-20T06:29:47;2.27;;;2.07;;
2650;SDS011;1335;48.180;16.342;2023-12-20T06:32:14;1.87;;;1.77;;
2650;SDS011;1335;48.180;16.342;2023-12-20T06:34:42;2.70;;;2.43;;
2650;SDS011;1335;48.180;16.342;2023-12-20T06:37:09;2.20;;;2.10;;
2650;SDS011;1335;48.180;16.342;2023-12-20T06:39:36;2.80;;;2.30;;
2650;SDS011;1335;48.180;16.342;2023-12-20T06:42:05;4.70;;;1.97;;
2650;SDS011;1335;48.180;16.342;2023-12-20T06:44:32;2.30;;;2.10;;
2650;SDS011;1335;48.180;16.342;2023-12-20T06:47:00;2.97;;;2.27;;
2650;SDS011;1335;48.180;16.342;2023-12-20T06:49:27;2.33;;;2.13;;
2650;SDS011;1335;48.180;16.342;2023-12-20T06:51:54;3.53;;;2.20;;
2650;SDS011;1335;48.180;16.342;2023-12-20T06:54:22;2.97;;;2.47;;
2650;SDS011;1335;48.180;16.342;2023-12-20T06:56:49;2.57;;;2.20;;
2650;SDS011;1335;48.180;16.342;2023-12-20T06:59:18;3.80;;;2.47;;
2650;SDS011;1335;48.180;16.342;2023-12-20T07:01:47;2.37;;;2.13;;
2650;SDS011;1335;48.180;16.342;2023-12-20T07:04:15;1.43;;;1.33;;
2650;SDS011;1335;48.180;16.342;2023-12-20T07:06:45;5.73;;;2.43;;
2650;SDS011;1335;48.180;16.342;2023-12-20T07:09:13;3.33;;;2.03;;
2650;SDS011;1335;48.180;16.342;2023-12-20T07:11:40;3.40;;;2.07;;
2650;SDS011;1335;48.180;16.342;2023-12-20T07:14:07;2.30;;;2.10;;
2650;SDS011;1335;48.180;16.342;2023-12-20T07:16:36;3.77;;;2.27;;
2650;SDS011;1335;48.180;16.342;2023-12-20T07:19:03;4.43;;;1.97;;
2650;SDS011;1335;48.180;16.342;2023-12-20T07:21:31;4.50;;;2.53;;
2650;SDS011;1335;48.180;16.342;2023-12-20T07:23:58;2.50;;;2.07;;
2650;SDS011;1335;48.180;16.342;2023-12-20T07:26:25;3.23;;;2.77;;
2650;SDS011;1335;48.180;16.342;2023-12-20T07:28:52;3.03;;;2.70;;
2650;SDS011;1335;48.180;16.342;2023-12-20T07:31:20;4.50;;;2.90;;
2650;SDS011;1335;48.180;16.342;2023-12-20T07:33:50;3.27;;;2.53;;
2650;SDS011;1335;48.180;16.342;2023-12-20T07:36:18;2.80;;;2.17;;
2650;SDS011;1335;48.180;16.342;2023-12-20T07:38:46;2.40;;;2.20;;
2650;SDS011;1335;48.180;16.342;2023-12-20T07:41:13;3.20;;;2.60;;
2650;SDS011;1335;48.180;16.342;2023-12-20T07:43:41;5.60;;;2.60;;
2650;SDS011;1335;48.180;16.342;2023-12-20T07:46:08;4.20;;;2.30;;
2650;SDS011;1335;48.180;16.342;2023-12-20T07:48:36;2.47;;;2.03;;
2650;SDS011;1335;48.180;16.342;2023-12-20T07:51:04;4.60;;;2.60;;
2650;SDS011;1335;48.180;16.342;2023-12-20T07:53:33;3.00;;;2.13;;
2650;SDS011;1335;48.180;16.342;2023-12-20T07:56:01;2.80;;;2.43;;
2650;SDS011;1335;48.180;16.342;2023-12-20T07:58:28;2.80;;;2.57;;
2650;SDS011;1335;48.180;16.342;2023-12-20T08:00:56;2.50;;;2.30;;
2650;SDS011;1335;48.180;16.342;2023-12-20T08:03:23;3.97;;;3.37;;
2650;SDS011;1335;48.180;16.342;2023-12-20T08:05:51;2.97;;;2.47;;
2650;SDS011;1335;48.180;16.342;2023-12-20T08:08:19;3.80;;;2.80;;
2650;SDS011;1335;48.180;16.342;2023-12-20T08:10:46;3.40;;;2.67;;
2650;SDS011;1335;48.180;16.342;2023-12-20T08:13:14;3.83;;;3.20;;
2650;SDS011;1335;48.180;16.342;2023-12-20T08:15:41;3.87;;;2.83;;
2650;SDS011;1335;48.180;16.342;2023-12-20T08:18:08;4.27;;;2.70;;
2650;SDS011;1335;48.180;16.342;2023-12-20T08:20:36;7.57;;;3.50;;
2650;SDS011;1335;48.180;16.342;2023-12-20T08:23:03;3.63;;;3.17;;
2650;SDS011;1335;48.180;16.342;2023-12-20T08:25:32;6.37;;;3.60;;
2650;SDS011;1335;48.180;16.342;2023-12-20T08:27:59;3.57;;;2.90;;
2650;SDS011;1335;48.180;16.342;2023-12-20T08:30:26;4.27;;;3.00;;
2650;SDS011;1335;48.180;16.342;2023-12-20T08:32:54;4.63;;;3.37;;
2650;SDS011;1335;48.180;16.342;2023-12-20T08:35:22;3.00;;;2.67;;
2650;SDS011;1335;48.180;16.342;2023-12-20T08:37:49;3.80;;;3.13;;
2650;SDS011;1335;48.180;16.342;2023-12-20T08:40:16;3.30;;;2.93;;
2650;SDS011;1335;48.180;16.342;2023-12-20T08:42:45;6.73;;;3.20;;
2650;SDS011;1335;48.180;16.342;2023-12-20T08:45:12;6.97;;;2.63;;
2650;SDS011;1335;48.180;16.342;2023-12-20T08:47:39;2.40;;;2.20;;
2650;SDS011;1335;48.180;16.342;2023-12-20T08:50:09;6.30;;;2.77;;
2650;SDS011;1335;48.180;16.342;2023-12-20T08:52:37;7.43;;;3.10;;
2650;SDS011;1335;48.180;16.342;2023-12-20T08:55:05;3.30;;;2.73;;
2650;SDS011;1335;48.180;16.342;2023-12-20T08:57:32;3.20;;;2.87;;
2650;SDS011;1335;48.180;16.342;2023-12-20T09:00:01;4.40;;;3.00;;
2650;SDS011;1335;48.180;16.342;2023-12-20T09:02:29;2.70;;;2.50;;
2650;SDS011;1335;48.180;16.342;2023-12-20T09:04:56;3.03;;;2.83;;
2650;SDS011;1335;48.180;16.342;2023-12-20T09:07:24;2.00;;;1.90;;
2650;SDS011;1335;48.180;16.342;2023-12-20T09:09:51;2.43;;;2.20;;
2650;SDS011;1335;48.180;16.342;2023-12-20T09:12:19;2.40;;;2.20;;
2650;SDS011;1335;48.180;16.342;2023-12-20T09:14:46;2.57;;;2.37;;
2650;SDS011;1335;48.180;16.342;2023-12-20T09:17:15;2.30;;;2.10;;
2650;SDS011;1335;48.180;16.342;2023-12-20T09:19:43;2.33;;;1.80;;
2650;SDS011;1335;48.180;16.342;2023-12-20T09:22:10;2.53;;;2.07;;
2650;SDS011;1335;48.180;16.342;2023-12-20T09:24:38;2.00;;;1.80;;
2650;SDS011;1335;48.180;16.342;2023-12-20T09:27:05;1.90;;;1.80;;
2650;SDS011;1335;48.180;16.342;2023-12-20T09:29:32;1.50;;;1.40;;
2650;SDS011;1335;48.180;16.342;2023-12-20T09:31:59;3.90;;;2.33;;
2650;SDS011;1335;48.180;16.342;2023-12-20T09:34:28;1.60;;;1.50;;
2650;SDS011;1335;48.180;16.342;2023-12-20T09:36:56;2.40;;;1.43;;
2650;SDS011;1335;48.180;16.342;2023-12-20T09:39:23;1.83;;;1.33;;
2650;SDS011;1335;48.180;16.342;2023-12-20T09:41:53;1.20;;;1.10;;
2650;SDS011;1335;48.180;16.342;2023-12-20T09:44:21;1.47;;;1.10;;
2650;SDS011;1335;48.180;16.342;2023-12-20T09:46:49;1.27;;;1.17;;
2650;SDS011;1335;48.180;16.342;2023-12-20T09:49:17;1.57;;;1.43;;
2650;SDS011;1335;48.180;16.342;2023-12-20T09:51:46;1.60;;;1.40;;
2650;SDS011;1335;48.180;16.342;2023-12-20T09:54:14;1.37;;;1.27;;
2650;SDS011;1335;48.180;16.342;2023-12-20T09:56:42;1.30;;;1.20;;
2650;SDS011;1335;48.180;16.342;2023-12-20T09:59:10;1.90;;;1.70;;
2650;SDS011;1335;48.180;16.342;2023-12-20T10:01:37;1.90;;;1.30;;
2650;SDS011;1335;48.180;16.342;2023-12-20T10:04:06;1.77;;;1.47;;
2650;SDS011;1335;48.180;16.342;2023-12-20T10:06:34;1.63;;;1.53;;
2650;SDS011;1335;48.180;16.342;2023-12-20T10:09:03;1.47;;;1.37;;
2650;SDS011;1335;48.180;16.342;2023-12-20T10:11:30;2.90;;;2.20;;
2650;SDS011;1335;48.180;16.342;2023-12-20T10:13:58;1.63;;;1.50;;
2650;SDS011;1335;48.180;16.342;2023-12-20T10:16:27;2.13;;;1.93;;
2650;SDS011;1335;48.180;16.342;2023-12-20T10:18:54;2.83;;;2.43;;
2650;SDS011;1335;48.180;16.342;2023-12-20T10:21:21;1.70;;;1.60;;
2650;SDS011;1335;48.180;16.342;2023-12-20T10:23:49;1.70;;;1.60;;
2650;SDS011;1335;48.180;16.342;2023-12-20T10:26:21;2.60;;;2.30;;
2650;SDS011;1335;48.180;16.342;2023-12-20T10:28:49;2.90;;;2.50;;
2650;SDS011;1335;48.180;16.342;2023-12-20T10:31:27;2.23;;;2.07;;
2650;SDS011;1335;48.180;16.342;2023-12-20T10:33:55;4.13;;;2.30;;
2650;SDS011;1335;48.180;16.342;2023-12-20T10:36:23;1.73;;;1.50;;
2650;SDS011;1335;48.180;16.342;2023-12-20T10:38:52;2.30;;;1.80;;
2650;SDS011;1335;48.180;16.342;2023-12-20T10:41:21;2.27;;;1.80;;
2650;SDS011;1335;48.180;16.342;2023-12-20T10:43:52;1.57;;;1.40;;
2650;SDS011;1335;48.180;16.342;2023-12-20T10:46:19;2.70;;;2.00;;
2650;SDS011;1335;48.180;16.342;2023-12-20T10:48:46;1.60;;;1.50;;
2650;SDS011;1335;48.180;16.342;2023-12-20T10:51:14;3.00;;;1.70;;
2650;SDS011;1335;48.180;16.342;2023-12-20T10:53:45;1.23;;;1.10;;
2650;SDS011;1335;48.180;16.342;2023-12-20T10:56:15;2.73;;;1.73;;
2650;SDS011;1335;48.180;16.342;2023-12-20T10:58:43;1.50;;;1.40;;
2650;SDS011;1335;48.180;16.342;2023-12-20T11:01:12;1.17;;;1.17;;
2650;SDS011;1335;48.180;16.342;2023-12-20T11:03:40;1.40;;;1.30;;
2650;SDS011;1335;48.180;16.342;2023-12-20T11:06:11;2.30;;;1.60;;
2650;SDS011;1335;48.180;16.342;2023-12-20T11:08:45;1.60;;;1.50;;
2650;SDS011;1335;48.180;16.342;2023-12-20T11:11:13;1.70;;;1.60;;
2650;SDS011;1335;48.180;16.342;2023-12-20T11:13:47;1.77;;;1.53;;
2650;SDS011;1335;48.180;16.342;2023-12-20T11:16:16;1.90;;;1.70;;
2650;SDS011;1335;48.180;16.342;2023-12-20T11:18:44;2.20;;;2.00;;
2650;SDS011;1335;48.180;16.342;2023-12-20T11:21:12;1.40;;;1.30;;
2650;SDS011;1335;48.180;16.342;2023-12-20T11:23:40;2.30;;;2.10;;
2650;SDS011;1335;48.180;16.342;2023-12-20T11:26:09;1.80;;;1.57;;
2650;SDS011;1335;48.180;16.342;2023-12-20T11:28:36;1.87;;;1.30;;
2650;SDS011;1335;48.180;16.342;2023-12-20T11:31:04;1.50;;;1.40;;
2650;SDS011;1335;48.180;16.342;2023-12-20T11:33:37;1.67;;;1.57;;
2650;SDS011;1335;48.180;16.342;2023-12-20T11:36:12;1.83;;;1.30;;
2650;SDS011;1335;48.180;16.342;2023-12-20T11:38:46;2.37;;;1.30;;
2650;SDS011;1335;48.180;16.342;2023-12-20T11:41:17;0.83;;;0.83;;
2650;SDS011;1335;48.180;16.342;2023-12-20T11:43:44;1.03;;;1.00;;
2650;SDS011;1335;48.180;16.342;2023-12-20T11:46:11;1.80;;;1.10;;
2650;SDS011;1335;48.180;16.342;2023-12-20T11:48:40;1.03;;;0.77;;
2650;SDS011;1335;48.180;16.342;2023-12-20T11:51:09;1.87;;;1.00;;
2650;SDS011;1335;48.180;16.342;2023-12-20T11:53:36;0.90;;;0.90;;
2650;SDS011;1335;48.180;16.342;2023-12-20T11:56:04;1.17;;;0.97;;
2650;SDS011;1335;48.180;16.342;2023-12-20T11:58:33;1.70;;;1.23;;
2650;SDS011;1335;48.180;16.342;2023-12-20T12:01:00;1.00;;;0.87;;
2650;SDS011;1335;48.180;16.342;2023-12-20T12:03:29;5.80;;;4.60;;
2650;SDS011;1335;48.180;16.342;2023-12-20T12:05:59;1.40;;;1.07;;
2650;SDS011;1335;48.180;16.342;2023-12-20T12:08:27;1.10;;;1.00;;
2650;SDS011;1335;48.180;16.342;2023-12-20T12:10:54;0.80;;;0.80;;
2650;SDS011;1335;48.180;16.342;2023-12-20T12:13:22;1.10;;;0.93;;
2650;SDS011;1335;48.180;16.342;2023-12-20T12:15:52;0.70;;;0.63;;
2650;SDS011;1335;48.180;16.342;2023-12-20T12:18:20;4.53;;;0.87;;
2650;SDS011;1335;48.180;16.342;2023-12-20T12:20:47;0.80;;;0.80;;
2650;SDS011;1335;48.180;16.342;2023-12-20T12:23:22;0.80;;;0.70;;
2650;SDS011;1335;48.180;16.342;2023-12-20T12:25:50;1.10;;;1.00;;
2650;SDS011;1335;48.180;16.342;2023-12-20T12:28:17;1.10;;;0.70;;
2650;SDS011;1335;48.180;16.342;2023-12-20T12:30:55;1.13;;;0.90;;
2650;SDS011;1335;48.180;16.342;2023-12-20T12:33:23;0.70;;;0.60;;
2650;SDS011;1335;48.180;16.342;2023-12-20T12:35:51;1.90;;;1.13;;
2650;SDS011;1335;48.180;16.342;2023-12-20T12:38:21;1.40;;;1.10;;
2650;SDS011;1335;48.180;16.342;2023-12-20T12:40:48;1.67;;;1.57;;
2650;SDS011;1335;48.180;16.342;2023-12-20T12:43:18;1.87;;;1.03;;
2650;SDS011;1335;48.180;16.342;2023-12-20T12:45:47;2.93;;;0.67;;
2650;SDS011;1335;48.180;16.342;2023-12-20T12:48:15;0.77;;;0.77;;
2650;SDS011;1335;48.180;16.342;2023-12-20T12:50:42;0.80;;;0.80;;
2650;SDS011;1335;48.180;16.342;2023-12-20T12:53:09;1.03;;;0.77;;
2650;SDS011;1335;48.180;16.342;2023-12-20T12:55:38;0.80;;;0.73;;
2650;SDS011;1335;48.180;16.342;2023-12-20T12:58:05;1.00;;;0.90;;
2650;SDS011;1335;48.180;16.342;2023-12-20T13:00:33;1.30;;;1.00;;
2650;SDS011;1335;48.180;16.342;2023-12-20T13:03:00;0.90;;;0.90;;
2650;SDS011;1335;48.180;16.342;2023-12-20T13:05:27;9.90;;;2.33;;
2650;SDS011;1335;48.180;16.342;2023-12-20T13:07:56;1.07;;;0.97;;
2650;SDS011;1335;48.180;16.342;2023-12-20T13:10:23;1.20;;;0.97;;
2650;SDS011;1335;48.180;16.342;2023-12-20T13:12:52;0.87;;;0.87;;
2650;SDS011;1335;48.180;16.342;2023-12-20T13:15:19;0.73;;;0.73;;
2650;SDS011;1335;48.180;16.342;2023-12-20T13:17:47;1.27;;;0.90;;
2650;SDS011;1335;48.180;16.342;2023-12-20T13:20:15;1.27;;;1.17;;
2650;SDS011;1335;48.180;16.342;2023-12-20T13:22:43;1.50;;;1.20;;
2650;SDS011;1335;48.180;16.342;2023-12-20T13:25:10;1.97;;;0.90;;
2650;SDS011;1335;48.180;16.342;2023-12-20T13:27:37;1.47;;;0.90;;
2650;SDS011;1335;48.180;16.342;2023-12-20T13:30:06;1.60;;;0.80;;
2650;SDS011;1335;48.180;16.342;2023-12-20T13:32:34;1.93;;;0.60;;
2650;SDS011;1335;48.180;16.342;2023-12-20T13:35:01;1.17;;;1.07;;
2650;SDS011;1335;48.180;16.342;2023-12-20T13:37:29;0.83;;;0.83;;
2650;SDS011;1335;48.180;16.342;2023-12-20T13:39:58;1.00;;;0.90;;
2650;SDS011;1335;48.180;16.342;2023-12-20T13:42:25;0.83;;;0.83;;
2650;SDS011;1335;48.180;16.342;2023-12-20T13:44:53;0.93;;;0.77;;
2650;SDS011;1335;48.180;16.342;2023-12-20T13:47:22;1.93;;;0.80;;
2650;SDS011;1335;48.180;16.342;2023-12-20T13:49:49;1.17;;;0.90;;
2650;SDS011;1335;48.180;16.342;2023-12-20T13:52:17;1.80;;;0.87;;
2650;SDS011;1335;48.180;16.342;2023-12-20T13:54:44;2.87;;;0.80;;
2650;SDS011;1335;48.180;16.342;2023-12-20T13:57:12;0.97;;;0.77;;
2650;SDS011;1335;48.180;16.342;2023-12-20T13:59:40;0.93;;;0.87;;
2650;SDS011;1335;48.180;16.342;2023-12-20T14:02:07;1.73;;;0.93;;
2650;SDS011;1335;48.180;16.342;2023-12-20T14:04:36;1.53;;;1.43;;
2650;SDS011;1335;48.180;16.342;2023-12-20T14:07:04;3.40;;;1.20;;
2650;SDS011;1335;48.180;16.342;2023-12-20T14:09:32;2.60;;;0.80;;
2650;SDS011;1335;48.180;16.342;2023-12-20T14:12:00;1.17;;;1.00;;
2650;SDS011;1335;48.180;16.342;2023-12-20T14:14:27;1.43;;;1.00;;
2650;SDS011;1335;48.180;16.342;2023-12-20T14:16:55;1.10;;;1.00;;
2650;SDS011;1335;48.180;16.342;2023-12-20T14:19:22;1.33;;;1.23;;
2650;SDS011;1335;48.180;16.342;2023-12-20T14:21:51;2.83;;;0.87;;
2650;SDS011;1335;48.180;16.342;2023-12-20T14:24:18;1.30;;;0.77;;
2650;SDS011;1335;48.180;16.342;2023-12-20T14:26:45;0.70;;;0.70;;
2650;SDS011;1335;48.180;16.342;2023-12-20T14:29:13;0.83;;;0.77;;
2650;SDS011;1335;48.180;16.342;2023-12-20T14:31:40;1.53;;;0.90;;
2650;SDS011;1335;48.180;16.342;2023-12-20T14:34:07;1.53;;;0.80;;
2650;SDS011;1335;48.180;16.342;2023-12-20T14:36:35;0.90;;;0.70;;
2650;SDS011;1335;48.180;16.342;2023-12-20T14:39:04;0.97;;;0.80;;
2650;SDS011;1335;48.180;16.342;2023-12-20T14:41:33;1.13;;;0.90;;
2650;SDS011;1335;48.180;16.342;2023-12-20T14:44:00;4.53;;;1.10;;
2650;SDS011;1335;48.180;16.342;2023-12-20T14:46:29;2.80;;;0.60;;
2650;SDS011;1335;48.180;16.342;2023-12-20T14:48:57;1.10;;;1.00;;
2650;SDS011;1335;48.180;16.342;2023-12-20T14:51:26;1.47;;;1.37;;
2650;SDS011;1335;48.180;16.342;2023-12-20T14:53:53;2.30;;;0.87;;